KSTJ/STJ METAR and TAF weather

Enter ICAO airport designator
Station Type Date Time Source
KSTJ METAR 2024/04/17 18:53 UTC NOAA

KSTJ 171853Z 30006KT 10SM CLR 22/08 A2994 RMK AO2 SLP136 T02220078


Station Type Date Time Source
KSTJ Decoded METAR 2024/04/17 18:53 UTC NOAA

ROSECRANS MEMORIAL AIRPORT, MO, United States (KSTJ) 39-46N 94-55W 247M
Apr 17, 2024 - 02:53 PM EDT / 2024.04.17 1853 UTC
Wind: from the WNW (300 degrees) at 7 MPH (6 KT):0
Visibility: 10 mile(s):0
Sky conditions: clear
Temperature: 72.0 F (22.2 C)
Dew Point: 46.0 F (7.8 C)
Relative Humidity: 39%
Pressure (altimeter): 29.94 in. Hg (1013 hPa)
ob: KSTJ 171853Z 30006KT 10SM CLR 22/08 A2994 RMK AO2 SLP136 T02220078
cycle: 19

Station Type Date Time Source
KSTJ TAF 2024/04/17 18:42 UTC NOAA